CMB56 ETAR-KCHS
Flight info
| Callsign | CMB56 |
|---|---|
| Flight time | N/A |
| Altitude | 34000 |
| Route | LIMGO N852 DIK M624 REMBA DCT TULIP DCT TOPPA DCT GINGA DCT GOMUP/M083F340 DCT 59N020W 60N030W 59N040W 57N050W DCT HOIST/N0486F340 DCT QUBIS/N0491F380 DCT EMJAY DCT ORF DCT RAPZZ AMYLU3 |
| Aircraft | B762/H-SDE1E2E3FGHIJ2J3J4J5M1RWXY/LB1D1 |
Departure
| Time | 2026-04-20 12:13 |
|---|---|
| Airport | Ramstein Air Base (ETAR) |
Arrival
| Time | N/A |
|---|---|
| Airport | Charleston International Airport (KCHS) |
| Time | Latitude | Longitude | Altitude | Speed | Heading |
|---|---|---|---|---|---|
| 2026-04-20 11:55 | 49.44183 | 7.58589 | 776 ft | 0 kts | 266° |
| 2026-04-20 12:06 | 49.44182 | 7.58576 | 776 ft | 4 kts | 266° |
| 2026-04-20 12:07 | 49.44177 | 7.58524 | 776 ft | 7 kts | 246° |
| 2026-04-20 12:07 | 49.44124 | 7.58498 | 776 ft | 11 kts | 179° |
| 2026-04-20 12:07 | 49.44049 | 7.58488 | 776 ft | 9 kts | 209° |
| 2026-04-20 12:07 | 49.44031 | 7.58400 | 776 ft | 9 kts | 264° |
| 2026-04-20 12:08 | 49.44017 | 7.58295 | 776 ft | 12 kts | 231° |
| 2026-04-20 12:08 | 49.43937 | 7.58275 | 776 ft | 13 kts | 176° |
| 2026-04-20 12:08 | 49.43858 | 7.58338 | 776 ft | 13 kts | 146° |
| 2026-04-20 12:08 | 49.43763 | 7.58368 | 776 ft | 15 kts | 175° |
| 2026-04-20 12:09 | 49.43656 | 7.58372 | 774 ft | 15 kts | 195° |
| 2026-04-20 12:09 | 49.43615 | 7.58229 | 773 ft | 17 kts | 266° |
| 2026-04-20 12:09 | 49.43606 | 7.58003 | 774 ft | 25 kts | 265° |
| 2026-04-20 12:09 | 49.43600 | 7.57741 | 774 ft | 25 kts | 267° |
| 2026-04-20 12:10 | 49.43525 | 7.57603 | 775 ft | 17 kts | 160° |
| 2026-04-20 12:10 | 49.43430 | 7.57709 | 776 ft | 12 kts | 142° |
| 2026-04-20 12:10 | 49.43415 | 7.57727 | 776 ft | 0 kts | 142° |
| 2026-04-20 12:12 | 49.43395 | 7.57751 | 776 ft | 13 kts | 142° |
| 2026-04-20 12:12 | 49.43299 | 7.57868 | 777 ft | 15 kts | 141° |
| 2026-04-20 12:12 | 49.43269 | 7.57994 | 777 ft | 10 kts | 82° |
| 2026-04-20 12:12 | 49.43296 | 7.58319 | 774 ft | 61 kts | 83° |
| 2026-04-20 12:13 | 49.43380 | 7.59280 | 779 ft | 119 kts | 82° |
| 2026-04-20 12:13 | 49.43518 | 7.60822 | 780 ft | 170 kts | 82° |
| 2026-04-20 12:13 | 49.43680 | 7.62667 | 1270 ft | 172 kts | 83° |
| 2026-04-20 12:13 | 49.43784 | 7.64488 | 1882 ft | 179 kts | 95° |
| 2026-04-20 12:14 | 49.43252 | 7.66298 | 2281 ft | 197 kts | 136° |
| 2026-04-20 12:14 | 49.42174 | 7.67651 | 2501 ft | 210 kts | 129° |
| 2026-04-20 12:14 | 49.41672 | 7.69746 | 2626 ft | 220 kts | 85° |
| 2026-04-20 12:14 | 49.42267 | 7.71932 | 2746 ft | 234 kts | 45° |
| 2026-04-20 12:15 | 49.43729 | 7.73080 | 3007 ft | 243 kts | 9° |
| 2026-04-20 12:15 | 49.45418 | 7.73510 | 3260 ft | 250 kts | 15° |
| 2026-04-20 12:15 | 49.47102 | 7.74308 | 3687 ft | 256 kts | 17° |
| 2026-04-20 12:15 | 49.48800 | 7.75142 | 4267 ft | 255 kts | 20° |
| 2026-04-20 12:16 | 49.50285 | 7.76639 | 4628 ft | 263 kts | 50° |
| 2026-04-20 12:16 | 49.51266 | 7.78977 | 5005 ft | 266 kts | 59° |
| 2026-04-20 12:16 | 49.52195 | 7.81463 | 5530 ft | 268 kts | 58° |
| 2026-04-20 12:16 | 49.53123 | 7.83952 | 6083 ft | 268 kts | 58° |
| 2026-04-20 12:17 | 49.54055 | 7.86471 | 6573 ft | 272 kts | 59° |
| 2026-04-20 12:17 | 49.54706 | 7.89206 | 6923 ft | 279 kts | 83° |
| 2026-04-20 12:17 | 49.54534 | 7.92186 | 7388 ft | 283 kts | 107° |
| 2026-04-20 12:17 | 49.53818 | 7.95013 | 7813 ft | 285 kts | 115° |
| 2026-04-20 12:18 | 49.52639 | 7.97433 | 8161 ft | 288 kts | 145° |
| 2026-04-20 12:18 | 49.50841 | 7.98726 | 8492 ft | 285 kts | 161° |
| 2026-04-20 12:18 | 49.49003 | 7.99867 | 8765 ft | 292 kts | 156° |
| 2026-04-20 12:18 | 49.47174 | 8.01226 | 9228 ft | 292 kts | 154° |
| 2026-04-20 12:19 | 49.45366 | 8.02663 | 9659 ft | 294 kts | 152° |
| 2026-04-20 12:19 | 49.43620 | 8.04332 | 10073 ft | 297 kts | 146° |
| 2026-04-20 12:19 | 49.41910 | 8.06168 | 10380 ft | 305 kts | 146° |